createdAt,value
2018-10-19T00:00:38.930Z,23.70
2018-10-19T00:01:38.959Z,25.40
2018-10-19T00:02:38.921Z,23.90
2018-10-19T00:03:38.896Z,22.70
2018-10-19T00:04:38.889Z,22.60
2018-10-19T00:05:38.913Z,20.30
2018-10-19T00:06:38.865Z,23.50
2018-10-19T00:07:39.423Z,21.00
2018-10-19T00:08:38.852Z,23.40
2018-10-19T00:09:38.834Z,21.50
2018-10-19T00:10:38.828Z,24.00
2018-10-19T00:11:38.836Z,23.60
2018-10-19T00:12:38.901Z,25.50
2018-10-19T00:13:38.801Z,24.80
2018-10-19T00:14:38.777Z,26.70
2018-10-19T00:15:38.777Z,28.60
2018-10-19T00:16:38.764Z,22.70
2018-10-19T00:17:38.768Z,23.40
2018-10-19T00:18:38.768Z,21.70
2018-10-19T00:19:38.738Z,24.90
2018-10-19T00:20:38.722Z,21.80
2018-10-19T00:21:38.708Z,20.70
2018-10-19T00:22:38.710Z,20.80
2018-10-19T00:23:38.690Z,23.00
2018-10-19T00:24:38.716Z,24.80
2018-10-19T00:25:38.664Z,24.70
2018-10-19T00:26:38.679Z,23.40
2018-10-19T00:27:38.674Z,23.80
2018-10-19T00:28:38.645Z,22.10
2018-10-19T00:29:38.659Z,22.40
2018-10-19T00:30:38.607Z,28.10
2018-10-19T00:31:38.596Z,27.90
2018-10-19T00:32:38.589Z,23.50
2018-10-19T00:33:38.600Z,24.10
2018-10-19T00:34:38.602Z,23.60
2018-10-19T00:35:38.551Z,25.20
2018-10-19T00:36:38.583Z,26.60
2018-10-19T00:37:38.535Z,24.20
2018-10-19T00:38:38.517Z,24.50
2018-10-19T00:39:38.507Z,24.80
2018-10-19T00:40:38.538Z,23.90
2018-10-19T00:41:38.501Z,25.30
2018-10-19T00:42:38.485Z,23.90
2018-10-19T00:43:38.505Z,24.60
2018-10-19T00:44:38.456Z,24.50
2018-10-19T00:45:38.477Z,21.70
2018-10-19T00:46:38.438Z,22.30
2018-10-19T00:47:38.430Z,23.30
2018-10-19T00:48:38.420Z,29.60
2018-10-19T00:49:38.415Z,26.20
2018-10-19T00:50:38.393Z,24.10
2018-10-19T00:51:38.406Z,25.40
2018-10-19T00:52:38.385Z,23.30
2018-10-19T00:53:38.358Z,22.60
2018-10-19T00:54:38.352Z,25.20
2018-10-19T00:55:38.343Z,24.00
2018-10-19T00:56:38.348Z,27.20
2018-10-19T00:57:38.312Z,23.40
2018-10-19T00:58:38.303Z,24.10
2018-10-19T00:59:38.295Z,23.00
2018-10-19T01:00:38.281Z,22.70
2018-10-19T01:01:38.315Z,23.60
2018-10-19T01:02:38.276Z,26.20
2018-10-19T01:03:38.248Z,23.30
2018-10-19T01:04:38.248Z,26.10
2018-10-19T01:05:38.235Z,27.20
2018-10-19T01:06:38.216Z,27.40
2018-10-19T01:07:38.247Z,23.60
2018-10-19T01:08:38.218Z,28.40
2018-10-19T01:09:38.183Z,24.20
2018-10-19T01:10:38.171Z,27.50
2018-10-19T01:11:38.173Z,25.90
2018-10-19T01:12:38.165Z,28.60
2018-10-19T01:13:38.172Z,28.60
2018-10-19T01:14:38.143Z,26.90
2018-10-19T01:15:38.129Z,26.90
2018-10-19T01:16:38.111Z,25.00
2018-10-19T01:17:38.113Z,25.10
2018-10-19T01:18:38.125Z,24.00
2018-10-19T01:19:38.091Z,25.60
2018-10-19T01:20:38.070Z,23.50
2018-10-19T01:21:38.073Z,22.40
2018-10-19T01:22:38.069Z,26.80
2018-10-19T01:23:38.060Z,24.00
2018-10-19T01:24:38.025Z,24.10
2018-10-19T01:25:38.017Z,28.40
2018-10-19T01:26:38.005Z,30.60
2018-10-19T01:27:38.006Z,23.80
2018-10-19T01:28:37.980Z,25.90
2018-10-19T01:29:38.001Z,25.00
2018-10-19T01:30:37.976Z,25.10
2018-10-19T01:31:37.955Z,24.60
2018-10-19T01:32:37.934Z,25.00
2018-10-19T01:33:37.928Z,21.80
2018-10-19T01:34:37.981Z,24.00
2018-10-19T01:35:37.917Z,30.70
2018-10-19T01:36:37.915Z,22.70
2018-10-19T01:37:37.898Z,26.60
2018-10-19T01:38:37.874Z,27.50
2018-10-19T01:39:37.864Z,30.20
2018-10-19T01:40:37.882Z,27.00
2018-10-19T01:41:37.844Z,26.30
2018-10-19T01:42:37.838Z,28.50
2018-10-19T01:43:37.820Z,29.60
2018-10-19T01:44:37.819Z,30.20
2018-10-19T01:45:37.813Z,30.20
2018-10-19T01:46:37.806Z,26.60
2018-10-19T01:47:37.815Z,27.40
2018-10-19T01:48:37.779Z,25.60
2018-10-19T01:49:37.759Z,29.70
2018-10-19T01:50:37.759Z,31.30
2018-10-19T01:51:37.772Z,27.50
2018-10-19T01:52:37.718Z,27.50
2018-10-19T01:53:37.721Z,24.90
2018-10-19T01:54:37.701Z,29.40
2018-10-19T01:55:37.712Z,30.30
2018-10-19T01:56:37.716Z,26.10
2018-10-19T01:57:37.665Z,28.90
2018-10-19T01:58:37.681Z,24.40
2018-10-19T01:59:37.643Z,25.10
2018-10-19T02:00:37.659Z,28.40
2018-10-19T02:01:37.635Z,30.90
2018-10-19T02:02:37.636Z,31.80
2018-10-19T02:03:37.605Z,27.20
2018-10-19T02:04:37.608Z,29.00
2018-10-19T02:05:37.581Z,30.10
2018-10-19T02:06:37.568Z,27.00
2018-10-19T02:07:37.581Z,24.60
2018-10-19T02:08:37.597Z,28.20
2018-10-19T02:09:37.554Z,31.20
2018-10-19T02:10:37.538Z,30.50
2018-10-19T02:11:37.518Z,27.20
2018-10-19T02:12:37.502Z,28.60
2018-10-19T02:13:37.529Z,34.70
2018-10-19T02:14:37.486Z,35.70
2018-10-19T02:15:37.474Z,33.00
2018-10-19T02:16:37.457Z,31.10
2018-10-19T02:17:37.470Z,30.20
2018-10-19T02:18:37.475Z,30.10
2018-10-19T02:19:37.425Z,28.20
2018-10-19T02:20:37.461Z,30.40
2018-10-19T02:21:37.460Z,33.50
2018-10-19T02:22:37.397Z,36.80
2018-10-19T02:23:37.434Z,31.60
2018-10-19T02:24:37.400Z,38.80
2018-10-19T02:25:37.360Z,38.80
2018-10-19T02:26:37.358Z,33.50
2018-10-19T02:27:37.342Z,32.70
2018-10-19T02:28:37.339Z,35.00
2018-10-19T02:29:37.324Z,38.40
2018-10-19T02:30:37.333Z,40.10
2018-10-19T02:31:37.304Z,35.10
2018-10-19T02:32:37.291Z,39.60
2018-10-19T02:33:37.331Z,46.20
2018-10-19T02:34:37.260Z,38.00
2018-10-19T02:35:37.274Z,40.10
2018-10-19T02:36:37.249Z,41.10
2018-10-19T02:37:37.237Z,46.10
2018-10-19T02:38:37.229Z,37.50
2018-10-19T02:39:37.273Z,42.20
2018-10-19T02:40:37.258Z,41.20
2018-10-19T02:41:37.191Z,44.10
2018-10-19T02:42:37.187Z,44.20
2018-10-19T02:43:37.164Z,38.10
2018-10-19T02:44:37.170Z,36.50
2018-10-19T02:45:37.141Z,40.50
2018-10-19T02:46:37.161Z,42.10
2018-10-19T02:47:37.132Z,44.80
2018-10-19T02:48:37.123Z,40.30
2018-10-19T02:49:37.115Z,42.10
2018-10-19T02:50:37.109Z,39.60
2018-10-19T02:51:37.095Z,39.10
2018-10-19T02:52:37.106Z,42.80
2018-10-19T02:53:37.065Z,42.00
2018-10-19T02:54:37.046Z,41.20
2018-10-19T02:55:37.042Z,42.10
2018-10-19T02:56:37.037Z,42.50
2018-10-19T02:57:37.027Z,42.10
2018-10-19T02:58:37.058Z,38.20
2018-10-19T02:59:37.037Z,38.30
2018-10-19T03:00:36.994Z,40.90
2018-10-19T03:01:36.971Z,40.60
2018-10-19T03:02:36.961Z,37.90
2018-10-19T03:03:36.996Z,39.70
2018-10-19T03:04:36.963Z,37.80
2018-10-19T03:05:36.927Z,43.30
2018-10-19T03:06:36.949Z,44.80
2018-10-19T03:07:36.930Z,41.20
2018-10-19T03:08:36.908Z,38.60
2018-10-19T03:09:36.955Z,37.90
2018-10-19T03:10:36.878Z,35.80
2018-10-19T03:11:36.902Z,42.90
2018-10-19T03:12:36.849Z,44.30
2018-10-19T03:13:36.847Z,42.70
2018-10-19T03:14:36.831Z,43.80
2018-10-19T03:15:36.842Z,41.00
2018-10-19T03:16:36.810Z,43.60
2018-10-19T03:17:36.821Z,43.10
2018-10-19T03:18:36.781Z,43.40
2018-10-19T03:19:36.795Z,40.00
2018-10-19T03:20:36.787Z,44.30
2018-10-19T03:21:36.778Z,40.30
2018-10-19T03:22:36.739Z,42.50
2018-10-19T03:23:36.756Z,36.20
2018-10-19T03:24:36.730Z,33.70
2018-10-19T03:25:36.736Z,43.40
2018-10-19T03:26:36.698Z,36.90
2018-10-19T03:27:36.702Z,34.50
2018-10-19T03:28:36.740Z,32.40
2018-10-19T03:29:36.665Z,34.40
2018-10-19T03:30:36.652Z,37.50
2018-10-19T03:31:36.680Z,37.60
2018-10-19T03:32:36.638Z,37.80
2018-10-19T03:33:36.643Z,31.50
2018-10-19T03:34:36.620Z,36.60
2018-10-19T03:35:36.600Z,39.10
2018-10-19T03:36:36.596Z,37.60
2018-10-19T03:37:36.605Z,33.60
2018-10-19T03:38:36.569Z,33.60
2018-10-19T03:39:36.626Z,38.00
2018-10-19T03:40:36.544Z,35.20
2018-10-19T03:41:36.537Z,30.50
2018-10-19T03:42:36.569Z,32.80
2018-10-19T03:43:36.516Z,34.20
2018-10-19T03:44:36.510Z,29.80
2018-10-19T03:45:36.508Z,34.40
2018-10-19T03:46:36.488Z,31.10
2018-10-19T03:47:36.546Z,36.00
2018-10-19T03:48:36.467Z,33.20
2018-10-19T03:49:36.473Z,33.10
2018-10-19T03:50:36.453Z,32.00
2018-10-19T03:51:36.471Z,36.60
2018-10-19T03:52:36.460Z,34.40
2018-10-19T03:53:36.450Z,33.50
2018-10-19T03:54:36.393Z,34.20
2018-10-19T03:55:36.431Z,43.30
2018-10-19T03:56:36.373Z,39.10
2018-10-19T03:57:36.362Z,38.40
2018-10-19T03:58:36.361Z,37.10
2018-10-19T03:59:36.382Z,42.20
2018-10-19T04:00:36.331Z,43.30
2018-10-19T04:01:36.353Z,41.30
2018-10-19T04:02:36.310Z,38.40
2018-10-19T04:03:36.379Z,35.60
2018-10-19T04:04:36.319Z,35.30
2018-10-19T04:05:36.330Z,39.50
2018-10-19T04:06:36.268Z,37.80
2018-10-19T04:07:36.257Z,32.00
2018-10-19T04:08:36.242Z,34.00
2018-10-19T04:09:36.271Z,29.40
2018-10-19T04:10:36.228Z,24.60
2018-10-19T04:11:36.211Z,27.10
2018-10-19T04:12:36.203Z,28.50
2018-10-19T04:13:36.188Z,25.00
2018-10-19T04:14:36.214Z,26.00
2018-10-19T04:15:36.198Z,24.50
2018-10-19T04:16:36.158Z,24.10
2018-10-19T04:17:36.145Z,27.10
2018-10-19T04:18:36.152Z,26.60
2018-10-19T04:19:36.125Z,25.70
2018-10-19T04:20:36.148Z,29.70
2018-10-19T04:21:36.154Z,26.10
2018-10-19T04:22:36.094Z,24.70
2018-10-19T04:23:36.090Z,22.60
2018-10-19T04:24:36.071Z,23.20
2018-10-19T04:25:36.059Z,22.60
2018-10-19T04:26:36.080Z,24.60
2018-10-19T04:27:36.089Z,26.30
2018-10-19T04:28:36.145Z,21.90
2018-10-19T04:29:36.039Z,24.30
2018-10-19T04:30:36.006Z,21.70
2018-10-19T04:31:35.998Z,23.80
2018-10-19T04:32:36.012Z,24.20
2018-10-19T04:33:35.971Z,19.20
2018-10-19T04:34:35.967Z,19.70
2018-10-19T04:35:35.976Z,19.30
2018-10-19T04:36:35.941Z,23.10
2018-10-19T04:37:35.952Z,21.30
2018-10-19T04:38:35.937Z,18.90
2018-10-19T04:39:35.910Z,20.70
2018-10-19T04:40:35.902Z,21.00
2018-10-19T04:41:36.003Z,20.20
2018-10-19T04:42:35.903Z,19.90
2018-10-19T04:43:35.872Z,20.10
2018-10-19T04:44:35.865Z,20.50
2018-10-19T04:45:35.845Z,20.70
2018-10-19T04:46:35.829Z,23.00
2018-10-19T04:47:35.860Z,23.60
2018-10-19T04:48:35.811Z,21.30
2018-10-19T04:49:35.799Z,22.10
2018-10-19T04:50:35.790Z,24.20
2018-10-19T04:51:35.835Z,29.00
2018-10-19T04:52:35.826Z,24.50
2018-10-19T04:53:35.787Z,25.90
2018-10-19T04:54:35.768Z,25.50
2018-10-19T04:55:35.748Z,24.80
2018-10-19T04:56:35.725Z,24.20
2018-10-19T04:57:35.753Z,22.60
2018-10-19T04:58:35.705Z,24.30
2018-10-19T04:59:35.691Z,23.10
2018-10-19T05:00:35.679Z,24.10
2018-10-19T05:01:35.677Z,24.20
2018-10-19T05:02:35.750Z,21.90
2018-10-19T05:03:35.679Z,22.60
2018-10-19T05:04:35.663Z,19.80
2018-10-19T05:05:35.671Z,20.10
2018-10-19T05:06:35.729Z,19.00
2018-10-19T05:07:35.605Z,20.10
2018-10-19T05:08:35.632Z,23.00
2018-10-19T05:09:35.611Z,19.80
2018-10-19T05:10:35.585Z,20.40
2018-10-19T05:11:35.613Z,23.00
2018-10-19T05:12:35.653Z,18.90
2018-10-19T05:13:35.598Z,19.60
2018-10-19T05:14:35.551Z,18.70
2018-10-19T05:15:35.585Z,19.80
2018-10-19T05:16:35.516Z,19.90
2018-10-19T05:17:35.522Z,19.20
2018-10-19T05:18:35.483Z,19.20
2018-10-19T05:19:35.497Z,18.60
2018-10-19T05:20:35.467Z,19.00
2018-10-19T05:21:35.467Z,19.60
2018-10-19T05:22:35.469Z,20.30
2018-10-19T05:23:35.448Z,19.60
2018-10-19T05:24:35.543Z,19.40
2018-10-19T05:25:35.412Z,20.10
2018-10-19T05:26:35.397Z,19.20
2018-10-19T05:27:35.389Z,18.90
2018-10-19T05:28:35.412Z,19.70
2018-10-19T05:29:35.366Z,18.70
2018-10-19T05:30:35.388Z,19.40
2018-10-19T05:31:35.343Z,19.20
2018-10-19T05:32:35.334Z,18.80
2018-10-19T05:33:35.322Z,20.00
2018-10-19T05:34:35.322Z,22.30
2018-10-19T05:35:35.316Z,20.10
2018-10-19T05:36:35.314Z,18.10
2018-10-19T05:37:35.282Z,20.20
2018-10-19T05:38:35.270Z,20.50
2018-10-19T05:39:35.257Z,20.70
2018-10-19T05:40:35.279Z,18.20
2018-10-19T05:41:35.259Z,21.40
2018-10-19T05:42:35.232Z,24.60
2018-10-19T05:43:35.317Z,22.30
2018-10-19T05:44:35.202Z,24.00
2018-10-19T05:45:35.247Z,24.80
2018-10-19T05:46:35.213Z,21.80
2018-10-19T05:47:35.174Z,22.80
2018-10-19T05:48:35.160Z,24.00
2018-10-19T05:49:35.154Z,23.80
2018-10-19T05:50:35.139Z,22.70
2018-10-19T05:51:35.155Z,22.90
2018-10-19T05:52:35.148Z,28.20
2018-10-19T05:53:35.109Z,28.30
2018-10-19T05:54:35.095Z,27.40
2018-10-19T05:55:35.086Z,31.30
2018-10-19T05:56:35.074Z,32.00
2018-10-19T05:57:35.090Z,34.50
2018-10-19T05:58:35.084Z,31.00
2018-10-19T05:59:35.041Z,34.60
2018-10-19T06:00:35.032Z,33.20
2018-10-19T06:01:35.018Z,31.10
2018-10-19T06:02:35.087Z,27.30
2018-10-19T06:03:35.037Z,34.00
2018-10-19T06:04:35.022Z,29.60
2018-10-19T06:05:34.991Z,29.90
2018-10-19T06:06:34.982Z,31.40
2018-10-19T06:07:34.952Z,33.20
2018-10-19T06:08:34.970Z,31.60
2018-10-19T06:09:34.961Z,30.40
2018-10-19T06:10:34.921Z,30.50
2018-10-19T06:11:34.908Z,37.50
2018-10-19T06:12:34.911Z,35.10
2018-10-19T06:13:34.920Z,36.00
2018-10-19T06:14:34.942Z,37.30
2018-10-19T06:15:34.873Z,38.30
2018-10-19T06:16:34.854Z,40.90
2018-10-19T06:17:34.852Z,39.60
2018-10-19T06:18:34.844Z,37.10
2018-10-19T06:19:34.825Z,37.40
2018-10-19T06:20:34.861Z,37.40
2018-10-19T06:21:34.830Z,37.00
2018-10-19T06:22:34.794Z,35.60
2018-10-19T06:23:34.812Z,32.90
2018-10-19T06:24:34.772Z,34.90
2018-10-19T06:25:34.786Z,32.80
2018-10-19T06:26:34.831Z,35.70
2018-10-19T06:27:34.767Z,38.30
2018-10-19T06:28:34.749Z,38.00
2018-10-19T06:29:34.758Z,38.60
2018-10-19T06:30:34.730Z,35.10
2018-10-19T06:31:34.752Z,35.00
2018-10-19T06:32:34.682Z,33.10
2018-10-19T06:33:34.681Z,29.90
2018-10-19T06:34:34.668Z,34.40
2018-10-19T06:35:34.650Z,31.50
2018-10-19T06:36:34.671Z,31.10
2018-10-19T06:37:34.648Z,33.40
2018-10-19T06:38:34.624Z,31.10
2018-10-19T06:39:34.617Z,31.10
2018-10-19T06:40:34.679Z,30.80
2018-10-19T06:41:34.591Z,31.70
2018-10-19T06:42:34.624Z,35.20
2018-10-19T06:43:34.576Z,33.00
2018-10-19T06:44:34.569Z,34.30
2018-10-19T06:45:34.571Z,33.30
2018-10-19T06:46:34.547Z,35.40
2018-10-19T06:47:34.565Z,38.30
2018-10-19T06:48:34.539Z,34.20
2018-10-19T06:49:34.524Z,33.10
2018-10-19T06:50:34.511Z,39.70
2018-10-19T06:51:34.476Z,39.20
2018-10-19T06:52:34.501Z,34.50
2018-10-19T06:53:34.506Z,41.90
2018-10-19T06:54:34.443Z,38.50
2018-10-19T06:55:34.436Z,37.40
2018-10-19T06:56:34.472Z,34.60
2018-10-19T06:57:34.408Z,35.50
2018-10-19T06:58:34.421Z,37.60
2018-10-19T06:59:34.454Z,37.40
2018-10-19T07:00:34.382Z,41.10
2018-10-19T07:01:34.447Z,39.80
2018-10-19T07:02:34.356Z,39.90
2018-10-19T07:03:34.371Z,38.10
2018-10-19T07:04:34.334Z,36.60
2018-10-19T07:05:34.362Z,38.40
2018-10-19T07:06:34.311Z,37.50
2018-10-19T07:07:34.319Z,35.30
2018-10-19T07:08:34.316Z,32.20
2018-10-19T07:09:34.278Z,34.10
2018-10-19T07:10:34.285Z,34.40
2018-10-19T07:11:34.259Z,30.80
2018-10-19T07:12:34.258Z,29.30
2018-10-19T07:13:34.318Z,31.30
2018-10-19T07:14:34.233Z,31.30
2018-10-19T07:15:34.265Z,31.00
2018-10-19T07:16:34.203Z,28.60
2018-10-19T07:17:34.192Z,31.50
2018-10-19T07:18:34.232Z,32.10
2018-10-19T07:19:34.175Z,32.40
2018-10-19T07:20:34.174Z,29.70
2018-10-19T07:21:34.251Z,25.90
2018-10-19T07:22:34.140Z,30.90
2018-10-19T07:23:34.126Z,30.80
2018-10-19T07:24:34.174Z,26.50
2018-10-19T07:25:34.105Z,33.00
2018-10-19T07:26:34.097Z,25.20
2018-10-19T07:27:34.088Z,25.40
2018-10-19T07:28:34.102Z,27.90
2018-10-19T07:29:34.099Z,28.60
2018-10-19T07:30:34.091Z,30.80
2018-10-19T07:31:34.058Z,25.80
2018-10-19T07:32:34.028Z,29.30
2018-10-19T07:33:34.017Z,28.20
2018-10-19T07:34:34.028Z,24.60
2018-10-19T07:35:34.038Z,28.80
2018-10-19T07:36:34.009Z,27.70
2018-10-19T07:37:33.977Z,27.50
2018-10-19T07:38:33.980Z,28.20
2018-10-19T07:39:33.972Z,28.90
2018-10-19T07:40:33.940Z,28.40
2018-10-19T07:41:33.985Z,31.80
2018-10-19T07:42:33.989Z,27.70
2018-10-19T07:43:33.915Z,27.00
2018-10-19T07:44:33.906Z,24.40
2018-10-19T07:45:33.899Z,22.40
2018-10-19T07:46:33.934Z,23.60
2018-10-19T07:47:33.932Z,21.90
2018-10-19T07:48:33.944Z,23.20
2018-10-19T07:49:33.861Z,23.50
2018-10-19T07:50:33.832Z,27.60
2018-10-19T07:51:33.843Z,23.40
2018-10-19T07:52:33.869Z,22.40
2018-10-19T07:53:33.806Z,20.60
2018-10-19T07:54:33.897Z,20.00
2018-10-19T07:55:33.778Z,19.30
2018-10-19T07:56:33.779Z,19.20
2018-10-19T07:57:33.767Z,21.80
2018-10-19T07:58:33.780Z,19.10
2018-10-19T07:59:33.744Z,19.20
2018-10-19T08:00:33.752Z,21.30
2018-10-19T08:01:33.745Z,22.10
2018-10-19T08:02:33.703Z,19.60
2018-10-19T08:03:33.730Z,18.10
2018-10-19T08:04:33.711Z,21.00
2018-10-19T08:05:33.670Z,21.00
2018-10-19T08:06:33.660Z,20.70
2018-10-19T08:07:33.655Z,19.50
2018-10-19T08:08:33.665Z,18.70
2018-10-19T08:09:33.654Z,20.40
2018-10-19T08:10:33.645Z,19.50
2018-10-19T08:11:33.680Z,20.80
2018-10-19T08:12:33.615Z,20.30
2018-10-19T08:13:33.663Z,21.50
2018-10-19T08:14:33.589Z,26.00
2018-10-19T08:15:33.571Z,28.50
2018-10-19T08:16:33.573Z,34.60
2018-10-19T08:17:33.542Z,34.10
2018-10-19T08:18:33.562Z,31.30
2018-10-19T08:19:33.551Z,29.50
2018-10-19T08:20:33.517Z,30.00
2018-10-19T08:21:33.499Z,28.20
2018-10-19T08:22:33.516Z,31.00
2018-10-19T08:23:33.475Z,32.30
2018-10-19T08:24:33.486Z,28.60
2018-10-19T08:25:33.494Z,29.90
2018-10-19T08:26:33.441Z,30.50
2018-10-19T08:27:33.430Z,30.20
2018-10-19T08:28:33.432Z,28.80
2018-10-19T08:29:33.424Z,26.40
2018-10-19T08:30:33.461Z,26.40
2018-10-19T08:31:33.386Z,30.70
2018-10-19T08:32:33.376Z,27.70
2018-10-19T08:33:33.367Z,25.90
2018-10-19T08:34:33.356Z,25.20
2018-10-19T08:35:33.374Z,27.20
2018-10-19T08:36:33.334Z,24.60
2018-10-19T08:37:33.357Z,23.40
2018-10-19T08:38:33.309Z,19.60
2018-10-19T08:39:33.336Z,20.40
2018-10-19T08:40:33.291Z,17.90
2018-10-19T08:41:33.333Z,18.70
2018-10-19T08:42:33.277Z,18.60
2018-10-19T08:43:33.336Z,21.10
2018-10-19T08:44:33.250Z,20.10
2018-10-19T08:45:33.237Z,18.50
2018-10-19T08:46:33.256Z,21.50
2018-10-19T08:47:33.237Z,19.40
2018-10-19T08:48:33.221Z,18.40
2018-10-19T08:49:33.215Z,18.80
2018-10-19T08:50:33.205Z,17.30
2018-10-19T08:51:33.185Z,18.10
2018-10-19T08:52:33.246Z,18.20
2018-10-19T08:53:33.191Z,19.30
2018-10-19T08:54:33.248Z,18.30
2018-10-19T08:55:33.122Z,18.90
2018-10-19T08:56:33.111Z,19.90
2018-10-19T08:57:33.160Z,18.70
2018-10-19T08:58:33.104Z,20.60
2018-10-19T08:59:33.078Z,20.40
2018-10-19T09:00:33.291Z,20.70
2018-10-19T09:01:33.059Z,16.80
2018-10-19T09:02:33.098Z,16.50
2018-10-19T09:03:33.158Z,16.20
2018-10-19T09:04:33.036Z,16.10
2018-10-19T09:05:33.023Z,16.70
2018-10-19T09:06:33.002Z,15.20
2018-10-19T09:07:32.991Z,15.80
2018-10-19T09:08:33.030Z,17.60
2018-10-19T09:09:32.991Z,16.30
2018-10-19T09:10:32.998Z,15.80
2018-10-19T09:11:32.972Z,19.10
2018-10-19T09:12:33.009Z,17.50
2018-10-19T09:13:32.962Z,16.60
2018-10-19T09:14:32.924Z,17.10
2018-10-19T09:15:32.907Z,17.00
2018-10-19T09:16:32.891Z,17.00
2018-10-19T09:17:32.900Z,17.90
2018-10-19T09:18:32.946Z,15.60
2018-10-19T09:19:32.859Z,16.80
2018-10-19T09:20:32.854Z,17.80
2018-10-19T09:21:32.839Z,18.20
2018-10-19T09:22:32.828Z,17.10
2018-10-19T09:23:32.853Z,16.60
2018-10-19T09:24:32.839Z,17.00
2018-10-19T09:25:32.794Z,17.00
2018-10-19T09:26:32.783Z,14.10
2018-10-19T09:27:32.778Z,16.60
2018-10-19T09:28:32.763Z,16.80
2018-10-19T09:29:32.828Z,17.10
2018-10-19T09:30:32.760Z,14.90
2018-10-19T09:31:32.728Z,15.80
2018-10-19T09:32:32.719Z,20.20
2018-10-19T09:33:32.725Z,17.30
2018-10-19T09:34:32.696Z,17.20
2018-10-19T09:35:32.810Z,15.70
2018-10-19T09:36:32.985Z,16.40
2018-10-19T09:37:32.665Z,16.50
2018-10-19T09:38:32.651Z,17.10
2018-10-19T09:39:32.651Z,17.30
2018-10-19T09:40:32.675Z,16.30
2018-10-19T09:41:32.618Z,16.50
2018-10-19T09:42:32.640Z,17.40
2018-10-19T09:43:32.599Z,17.00
2018-10-19T09:44:32.590Z,19.10
2018-10-19T09:45:32.586Z,17.40
2018-10-19T09:46:32.612Z,19.00
2018-10-19T09:47:32.580Z,18.30
2018-10-19T09:48:32.553Z,15.60
2018-10-19T09:49:32.531Z,15.10
2018-10-19T09:50:32.524Z,17.10
2018-10-19T09:51:32.539Z,15.00
2018-10-19T09:52:32.501Z,17.40
2018-10-19T09:53:32.490Z,18.40
2018-10-19T09:54:32.494Z,16.70
2018-10-19T09:55:32.466Z,19.30
2018-10-19T09:56:32.470Z,17.80
2018-10-19T09:57:32.466Z,17.10
2018-10-19T09:58:32.432Z,17.20
2018-10-19T09:59:32.426Z,16.90
2018-10-19T10:00:32.420Z,17.20
2018-10-19T10:01:32.462Z,18.20
2018-10-19T10:02:32.438Z,17.90
2018-10-19T10:03:32.376Z,18.00
2018-10-19T10:04:32.386Z,19.60
2018-10-19T10:05:32.361Z,20.70
2018-10-19T10:06:32.349Z,19.20
2018-10-19T10:07:32.337Z,17.40
2018-10-19T10:08:32.379Z,22.50
2018-10-19T10:09:32.356Z,18.10
2018-10-19T10:10:32.302Z,21.30
2018-10-19T10:11:32.290Z,19.80
2018-10-19T10:12:32.322Z,19.90
2018-10-19T10:13:32.311Z,21.50
2018-10-19T10:14:32.256Z,19.10
2018-10-19T10:15:32.364Z,19.30
2018-10-19T10:16:32.245Z,19.10
2018-10-19T10:17:32.249Z,21.60
2018-10-19T10:18:32.221Z,21.20
2018-10-19T10:19:32.248Z,20.50
2018-10-19T10:20:32.194Z,20.80
2018-10-19T10:21:32.181Z,24.50
2018-10-19T10:22:33.616Z,20.80
2018-10-19T10:23:32.169Z,23.50
2018-10-19T10:24:32.175Z,22.70
2018-10-19T10:25:32.142Z,21.40
2018-10-19T10:26:32.227Z,24.00
2018-10-19T10:27:32.119Z,22.40
2018-10-19T10:28:32.105Z,23.40
2018-10-19T10:29:32.384Z,22.60
2018-10-19T10:30:32.120Z,23.10
2018-10-19T10:31:32.071Z,22.10
2018-10-19T10:32:32.102Z,23.80
2018-10-19T10:33:32.078Z,24.20
2018-10-19T10:34:32.069Z,22.00
2018-10-19T10:35:32.114Z,26.60
2018-10-19T10:36:32.164Z,22.20
2018-10-19T10:37:32.005Z,21.60
2018-10-19T10:38:31.999Z,22.20
2018-10-19T10:39:32.071Z,23.60
2018-10-19T10:40:32.018Z,21.40
2018-10-19T10:41:32.008Z,19.60
2018-10-19T10:42:31.962Z,24.20
2018-10-19T10:43:31.946Z,23.20
2018-10-19T10:44:31.947Z,27.20
2018-10-19T10:45:31.922Z,22.60
2018-10-19T10:46:31.906Z,24.60
2018-10-19T10:47:31.984Z,27.70
2018-10-19T10:48:31.923Z,24.40
2018-10-19T10:49:31.873Z,23.40
2018-10-19T10:50:31.864Z,23.80
2018-10-19T10:51:31.852Z,22.70
2018-10-19T10:52:32.006Z,23.50
2018-10-19T10:53:31.830Z,26.30
2018-10-19T10:54:31.825Z,23.80
2018-10-19T10:55:31.847Z,22.90
2018-10-19T10:56:31.802Z,22.90
2018-10-19T10:57:31.788Z,24.60
2018-10-19T10:58:31.815Z,25.70
2018-10-19T10:59:31.766Z,25.60
2018-10-19T11:00:31.758Z,20.30
2018-10-19T11:01:31.744Z,23.00
2018-10-19T11:02:31.748Z,20.60
2018-10-19T11:03:31.748Z,23.30
2018-10-19T11:04:31.714Z,22.70
2018-10-19T11:05:31.831Z,24.10
2018-10-19T11:06:31.693Z,23.30
2018-10-19T11:07:31.800Z,26.40
2018-10-19T11:08:31.702Z,25.00
2018-10-19T11:09:31.686Z,24.50
2018-10-19T11:10:31.649Z,24.80
2018-10-19T11:11:31.720Z,22.20
2018-10-19T11:12:31.625Z,20.80
2018-10-19T11:13:31.623Z,25.20
2018-10-19T11:14:31.629Z,23.60
2018-10-19T11:15:31.616Z,23.60
2018-10-19T11:16:31.581Z,22.30
2018-10-19T11:17:31.569Z,25.80
2018-10-19T11:18:31.560Z,22.70
2018-10-19T11:19:31.560Z,22.00
2018-10-19T11:20:31.570Z,21.80
2018-10-19T11:21:31.559Z,21.80
2018-10-19T11:22:31.516Z,23.00
2018-10-19T11:23:31.511Z,24.90
2018-10-19T11:24:31.545Z,22.30
2018-10-19T11:25:31.537Z,23.50
2018-10-19T11:26:31.473Z,23.80
2018-10-19T11:27:31.492Z,22.10
2018-10-19T11:28:31.457Z,24.20
2018-10-19T11:29:31.440Z,23.00
2018-10-19T11:30:31.442Z,23.70
2018-10-19T11:31:31.445Z,25.90
2018-10-19T11:32:31.415Z,22.60
2018-10-19T11:33:31.422Z,25.60
2018-10-19T11:34:31.387Z,21.50
2018-10-19T11:35:31.378Z,23.70
2018-10-19T11:36:31.396Z,25.30
2018-10-19T11:37:31.381Z,22.10
2018-10-19T11:38:31.366Z,22.10
2018-10-19T11:39:31.362Z,24.00
2018-10-19T11:40:31.323Z,24.40
2018-10-19T11:41:31.319Z,23.50
2018-10-19T11:42:31.342Z,24.30
2018-10-19T11:43:31.288Z,22.80
2018-10-19T11:44:31.288Z,22.80
2018-10-19T11:45:31.277Z,20.70
2018-10-19T11:46:31.277Z,20.20
2018-10-19T11:47:31.263Z,22.00
2018-10-19T11:48:31.325Z,18.70
2018-10-19T11:49:31.224Z,22.10
2018-10-19T11:50:31.216Z,21.60
2018-10-19T11:51:31.220Z,23.30
2018-10-19T11:52:31.196Z,20.90
2018-10-19T11:53:31.250Z,18.50
2018-10-19T11:54:31.181Z,20.50
2018-10-19T11:55:31.156Z,21.40
2018-10-19T11:56:31.174Z,19.80
2018-10-19T11:57:31.133Z,20.90
2018-10-19T11:58:31.154Z,19.10
2018-10-19T11:59:31.111Z,20.10
2018-10-19T12:00:31.099Z,20.60
2018-10-19T12:01:31.139Z,20.50
2018-10-19T12:02:31.108Z,18.20
2018-10-19T12:03:31.101Z,20.90
2018-10-19T12:04:31.090Z,17.20
2018-10-19T12:05:31.043Z,17.50
2018-10-19T12:06:31.045Z,19.30
2018-10-19T12:07:31.039Z,18.70
2018-10-19T12:08:31.014Z,22.10
2018-10-19T12:09:31.015Z,22.70
2018-10-19T12:10:31.112Z,25.30
2018-10-19T12:11:30.980Z,21.60
2018-10-19T12:12:30.981Z,22.80
2018-10-19T12:13:30.969Z,21.30
2018-10-19T12:14:30.989Z,22.80
2018-10-19T12:15:30.941Z,22.10
2018-10-19T12:16:31.027Z,21.40
2018-10-19T12:17:30.928Z,21.70
2018-10-19T12:18:30.902Z,22.70
2018-10-19T12:19:30.892Z,23.60
2018-10-19T12:20:30.916Z,20.80
2018-10-19T12:21:30.870Z,22.30
2018-10-19T12:22:30.865Z,22.80
2018-10-19T12:23:30.881Z,20.90
2018-10-19T12:24:30.854Z,23.10
2018-10-19T12:25:30.904Z,23.50
2018-10-19T12:26:30.817Z,21.10
2018-10-19T12:27:30.814Z,23.10
2018-10-19T12:28:30.801Z,22.50
2018-10-19T12:29:30.834Z,24.20
2018-10-19T12:30:30.773Z,22.30
2018-10-19T12:31:30.787Z,24.70
2018-10-19T12:32:30.758Z,24.70
2018-10-19T12:33:30.742Z,23.10
2018-10-19T12:34:30.725Z,24.60
2018-10-19T12:35:30.764Z,25.70
2018-10-19T12:36:30.733Z,20.50
2018-10-19T12:37:30.699Z,22.00
2018-10-19T12:38:30.688Z,24.40
2018-10-19T12:39:30.671Z,22.80
2018-10-19T12:40:30.666Z,21.00
2018-10-19T12:41:30.757Z,22.30
2018-10-19T12:42:30.667Z,23.30
2018-10-19T12:43:30.625Z,21.80
2018-10-19T12:44:30.617Z,20.50
2018-10-19T12:45:30.617Z,22.00
2018-10-19T12:46:30.650Z,23.50
2018-10-19T12:47:30.619Z,22.30
2018-10-19T12:48:30.621Z,23.10
2018-10-19T12:49:30.565Z,20.70
2018-10-19T12:50:30.557Z,23.20
2018-10-19T12:51:30.535Z,20.50
2018-10-19T12:52:30.528Z,21.10